Historyczne dane pomiarowe

Dodano dane terminowe – wersja testowa.

Dane z okresu 1951-2018

Wersja bazy: 1.27 [2018-11-28, lista zmian], aktualizacja planowana na 2018-12-07

Dane meteo z obszaru Polski uzyskane na podstawie danych udostępnionych przez Instytut Meteorologii i Gospodarki Wodnej – Państwowy Instytut Badawczy.

 

Wybierz Datę:    

       

TemperaturaWilgotnośćWiatrCiśnienieOpadyŚniegCzas trwania zjawisk
 Stacja t tx tn tng RH VA  wxwx mslp ppp RRR   cm mm wxwxwxwxwxwxwx
1978-11-08 4.2 9.9 0.1- 89.8- 3.0 1.7---- 0.0------------
1978-11-09 0.1 6.0 -3.1- 85.8- 0.0 0.7---- 0.0------------
1978-11-10 -0.7 6.7 -3.5- 85.8- 2.7 1.7---- 0.0------------
1978-11-11 -2.0 5.5 -6.3- 83.5- 0.0 0.3---- 0.0------------
1978-11-12 -3.1 0.0 -6.4- 91.3- 5.3 1.0---- 0.0------------
1978-11-13 -2.8 6.1 -8.4- 83.5- 0.0 1.3---- 0.0------------
1978-11-14 -2.3 3.2 -7.6- 88.3- 5.3 1.3---- 0.0------------
1978-11-15 0.7 4.7 -2.3- 81.0- 3.7 1.7---- 0.0------------
1978-11-16 2.6 9.1 -1.7- 64.3- 1.3 3.3---- 0.0------------
1978-11-17 2.3 6.6 -1.9- 78.8- 4.0 1.7---- 0.0------------
1978-11-18 2.0 5.3 -1.7- 80.5- 4.0 2.7---- 0.0------------
1978-11-19 2.5 5.5 0.0- 65.5- 3.7 3.0---- 0.0------------
1978-11-20 4.5 10.0 0.8- 46.8- 1.7 5.0---- 0.0------------
1978-11-21 2.0 5.7 -3.7- 81.5- 3.7 2.0---- 0.0------------
1978-11-22 1.7 5.3 -3.5- 77.3- 5.7 2.0---- 0.0------------
1978-11-23 3.3 5.0 1.2- 81.8- 8.0 5.3---- 0.3------------
1978-11-24 4.0 5.7 3.0- 79.8- 8.0 4.3---- 0.0------------
1978-11-25 4.1 8.1 1.5- 73.0- 2.0 3.7---- 0.0------------
1978-11-26 -0.2 5.5 -3.8- 78.3- 4.3 0.7---- 0.0------------
1978-11-27 -0.6 9.1 -6.6- 80.0- 5.0 0.7---- 0.1------------
1978-11-28 0.9 4.7 -0.6- 89.8- 8.0 1.0---- 9.7------------
1978-11-29 -1.6 1.2 -5.3- 88.3- 8.0 2.7---- 0.0-- 8---------
1978-11-30 -2.1 1.5 -7.7- 92.3- 8.0 0.7---- 11.4-- 6---------
1978-12-01 0.8 1.8 0.1- 97.0- 8.0 2.0---- 3.3-- 8---------
1978-12-02 -0.4 0.5 -1.9- 95.3- 8.0 1.0---- 0.6-- 9---------
1978-12-03 -4.5 -1.5 -9.6- 84.3- 6.7 1.3---- 0.6-- 8---------
1978-12-04-11.8 -8.0-15.2- 81.8- 8.0 2.7---- 0.5-- 9---------
1978-12-05-11.8-10.0-13.7- 78.0- 8.0 1.7---- 0.7-- 10---------
1978-12-06-13.6 -9.0-22.9- 81.3- 4.7 1.0---- 0.8-- 12---------
1978-12-07-20.2 -8.0-27.4- 80.5- 0.0 0.0---- 0.0-- 14---------
226.1 ms

 

Źródłem pochodzenia danych jest Instytut Meteorologii i Gospodarki Wodnej – Państwowy Instytut Badawczy. Dane Instytutu Meteorologii i Gospodarki Wodnej – Państwowego Instytutu Badawczego zostały przetworzone.

Dane źródłowe można odnaleźć na stronie https://dane.imgw.pl